Terminal Aerodrome Forecast
Issued by NWS

Home | Current Version | Previous Version | Text Only | Print | Product List | Glossary On
Versions: 1 2 3 4 5 6 7 8 9 10 11 12
000
FTUS42 TJSJ 271100
TAFJBQ
TAF
TJBQ 271130Z 2712/2812 12006KT P6SM SCT030
     FM271400 07015KT P6SM FEW025
     FM272300 08008KT P6SM VCSH SCT025 SCT040
      AMD NOT SKED 2802/2811=

USA.gov is the U.S. government's official web portal to all federal, state and local government web resources and services.